Time;durP1;ratioP1;P1;durP2;ratioP2;P2;SDS_P1;SDS_P2;PMS_P1;PMS_P2;Temp;Humidity;BMP_temperature;BMP_pressure;BME280_temperature;BME280_humidity;BME280_pressure;Samples;Min_cycle;Max_cycle;Signal;HPM_P1;HPM_P2
2023/11/28 00:00:31;;;;;;;5.68;4.32;;;;;;;3.67;76.23;97915.56;5013099;28;20410;-73
2023/11/28 00:02:58;;;;;;;4.65;3.97;;;;;;;3.67;75.86;97921.63;5013000;28;20113;-75
2023/11/28 00:05:25;;;;;;;6.05;4.13;;;;;;;3.65;76.30;97916.50;4995671;28;20078;-74
2023/11/28 00:07:52;;;;;;;4.82;4.30;;;;;;;3.64;76.35;97911.38;5013178;28;20085;-74
2023/11/28 00:10:18;;;;;;;4.40;4.00;;;;;;;3.63;76.47;97920.13;4995464;28;20516;-76
2023/11/28 00:12:45;;;;;;;4.95;4.45;;;;;;;3.62;76.41;97910.63;5013073;28;20045;-74
2023/11/28 00:15:11;;;;;;;5.82;5.25;;;;;;;3.63;76.44;97914.91;4995417;28;20046;-75
2023/11/28 00:17:38;;;;;;;5.45;4.95;;;;;;;3.61;76.35;97927.16;4995647;28;20116;-75
2023/11/28 00:20:05;;;;;;;6.40;4.93;;;;;;;3.61;76.52;97929.75;5012824;28;20487;-74
2023/11/28 00:22:32;;;;;;;6.00;5.32;;;;;;;3.59;76.43;97935.03;5013123;28;20060;-72
2023/11/28 00:24:59;;;;;;;6.05;5.45;;;;;;;3.60;76.18;97939.34;5012649;28;20430;-78
2023/11/28 00:27:25;;;;;;;7.63;6.45;;;;;;;3.60;76.23;97941.09;5012862;28;20049;-74
2023/11/28 00:29:52;;;;;;;7.28;6.47;;;;;;;3.60;76.31;97935.91;4995552;28;20451;-75
2023/11/28 00:32:19;;;;;;;7.95;6.45;;;;;;;3.57;75.90;97930.84;5012724;28;20502;-77
2023/11/28 00:34:46;;;;;;;7.32;6.47;;;;;;;3.57;76.25;97954.28;4995217;28;20056;-72
2023/11/28 00:37:12;;;;;;;7.88;6.82;;;;;;;3.56;76.16;97950.00;5012803;28;20042;-73
2023/11/28 00:39:40;;;;;;;7.70;6.35;;;;;;;3.55;76.51;97954.34;5012590;28;20147;-72
2023/11/28 00:42:07;;;;;;;7.32;6.13;;;;;;;3.55;76.45;97962.16;5012546;28;20093;-75
2023/11/28 00:44:33;;;;;;;6.78;5.97;;;;;;;3.56;76.35;97965.63;5012328;28;20081;-74
2023/11/28 00:47:00;;;;;;;6.97;6.25;;;;;;;3.56;75.96;97965.63;5012690;28;20053;-73
2023/11/28 00:49:27;;;;;;;6.43;5.82;;;;;;;3.56;76.38;97955.22;4994843;28;20137;-75
2023/11/28 00:51:53;;;;;;;6.57;5.90;;;;;;;3.56;76.15;97965.63;5012353;28;20060;-74
2023/11/28 00:54:20;;;;;;;6.47;5.75;;;;;;;3.56;76.08;97976.03;5012300;28;20042;-74
2023/11/28 00:56:47;;;;;;;7.75;6.20;;;;;;;3.57;76.17;97982.91;5012303;28;20740;-72
2023/11/28 00:59:13;;;;;;;5.85;5.25;;;;;;;3.55;75.83;97976.94;5012495;28;20049;-74
2023/11/28 01:01:40;;;;;;;6.55;5.85;;;;;;;3.55;76.04;97988.19;5012453;28;20403;-73
2023/11/28 01:04:07;;;;;;;7.18;5.07;;;;;;;3.54;76.01;97996.91;5011987;28;20054;-73
2023/11/28 01:06:34;;;;;;;6.40;5.43;;;;;;;3.53;76.20;97992.66;5012091;28;20453;-75
2023/11/28 01:09:01;;;;;;;6.22;5.60;;;;;;;3.54;76.01;97998.69;4994645;28;20490;-74
2023/11/28 01:11:28;;;;;;;7.32;5.47;;;;;;;3.54;75.75;98004.72;5011981;28;20054;-77
2023/11/28 01:13:55;;;;;;;6.18;5.57;;;;;;;3.53;75.77;98008.25;5012115;28;20054;-72
2023/11/28 01:16:21;;;;;;;6.22;5.63;;;;;;;3.52;76.10;98007.41;5012169;28;20130;-72
2023/11/28 01:18:49;;;;;;;6.15;5.55;;;;;;;3.52;75.91;98019.59;5011947;28;20050;-72
2023/11/28 01:21:16;;;;;;;7.72;5.40;;;;;;;3.53;76.28;98016.06;5011855;28;20053;-74
2023/11/28 01:23:43;;;;;;;6.65;5.13;;;;;;;3.54;76.03;98022.13;4994141;28;20058;-76
2023/11/28 01:26:09;;;;;;;6.25;5.65;;;;;;;3.52;75.82;98023.00;4994186;28;20053;-77
2023/11/28 01:28:36;;;;;;;7.00;6.03;;;;;;;3.53;75.80;98031.66;5011887;28;20621;-71
2023/11/28 01:31:04;;;;;;;6.43;5.18;;;;;;;3.52;76.23;98041.22;5011888;28;20181;-75
2023/11/28 01:33:32;;;;;;;6.32;5.57;;;;;;;3.51;75.71;98049.97;5011738;28;20049;-75
2023/11/28 01:35:58;;;;;;;5.97;5.07;;;;;;;3.51;76.10;98044.75;5011602;28;20510;-76
2023/11/28 01:38:25;;;;;;;8.85;6.32;;;;;;;3.52;76.12;98059.44;5011469;28;20057;-77
2023/11/28 01:40:52;;;;;;;9.65;5.93;;;;;;;3.53;75.98;98060.28;5011811;28;20046;-72
2023/11/28 01:43:29;;;;;;;6.28;5.40;;;;;;;3.50;74.92;98066.50;5011647;28;20414;-77
2023/11/28 01:45:57;;;;;;;7.88;5.78;;;;;;;3.54;75.87;98076.75;5011504;28;20471;-76
2023/11/28 01:48:24;;;;;;;8.68;6.10;;;;;;;3.53;75.96;98078.50;5011501;28;20462;-74
2023/11/28 01:50:51;;;;;;;7.15;5.55;;;;;;;3.54;75.93;98074.16;5011349;28;20061;-75
2023/11/28 01:53:18;;;;;;;8.38;6.13;;;;;;;3.52;75.77;98088.06;5011552;28;20104;-72
2023/11/28 01:55:44;;;;;;;6.50;5.70;;;;;;;3.51;75.67;98083.78;5011552;28;20058;-77
2023/11/28 01:58:12;;;;;;;7.35;6.05;;;;;;;3.50;75.81;98082.09;4993712;28;20092;-77
2023/11/28 02:00:39;;;;;;;7.00;5.93;;;;;;;3.50;75.53;98092.50;5010952;28;20081;-74
2023/11/28 02:03:07;;;;;;;7.20;5.72;;;;;;;3.49;75.86;98090.84;5010884;28;20041;-75
2023/11/28 02:05:35;;;;;;;9.77;6.93;;;;;;;3.49;75.62;98096.03;5011049;28;20105;-73
2023/11/28 02:08:02;;;;;;;8.48;6.30;;;;;;;3.49;75.64;98095.19;5011410;28;20129;-77
2023/11/28 02:10:29;;;;;;;7.95;6.25;;;;;;;3.49;76.00;98098.66;4993735;28;20079;-74
2023/11/28 02:12:55;;;;;;;7.80;6.53;;;;;;;3.50;75.56;98102.91;5011174;28;20054;-77
2023/11/28 02:15:42;;;;;;;10.98;6.80;;;;;;;3.45;74.37;98110.16;5010912;28;20494;-73
2023/11/28 02:18:10;;;;;;;10.40;6.70;;;;;;;3.47;75.52;98117.84;5011087;28;20057;-75
2023/11/28 02:20:37;;;;;;;8.80;6.38;;;;;;;3.46;75.68;98121.38;5011074;28;20057;-75
2023/11/28 02:23:05;;;;;;;10.98;6.38;;;;;;;3.43;75.46;98114.56;4993685;28;20085;-73
2023/11/28 02:25:39;;;;;;;9.55;6.30;;;;;;;3.42;75.26;98125.06;4993476;28;20503;-75
2023/11/28 02:28:06;;;;;;;9.20;6.38;;;;;;;3.42;75.41;98122.44;4993861;28;20141;-74
2023/11/28 02:30:33;;;;;;;7.78;5.22;;;;;;;3.42;75.62;98122.44;5011124;28;20050;-74
2023/11/28 02:32:59;;;;;;;7.50;5.35;;;;;;;3.43;75.79;98121.56;5010881;28;20050;-75
2023/11/28 02:35:26;;;;;;;8.05;5.65;;;;;;;3.43;75.66;98129.34;5010719;28;20077;-78
2023/11/28 02:37:52;;;;;;;11.30;5.60;;;;;;;3.43;75.69;98131.97;5011034;28;20058;-76
2023/11/28 02:40:19;;;;;;;8.32;5.70;;;;;;;3.43;75.68;98139.75;5010851;28;20054;-74
2023/11/28 02:42:46;;;;;;;7.03;5.65;;;;;;;3.43;75.71;98131.97;4993528;28;20454;-72
2023/11/28 02:45:12;;;;;;;9.80;6.05;;;;;;;3.43;75.48;98142.38;5010525;28;20143;-74
2023/11/28 02:47:39;;;;;;;8.85;5.60;;;;;;;3.44;75.73;98133.63;5010647;28;20144;-77
2023/11/28 02:50:06;;;;;;;9.43;5.80;;;;;;;3.42;75.52;98146.72;5010911;28;20104;-75
2023/11/28 02:52:32;;;;;;;10.63;4.95;;;;;;;3.42;75.37;98144.13;4993394;28;20078;-76
2023/11/28 02:54:59;;;;;;;8.50;5.90;;;;;;;3.41;75.21;98149.41;5010506;28;20065;-75
2023/11/28 02:57:25;;;;;;;9.40;5.82;;;;;;;3.41;75.41;98163.25;5010688;28;20079;-74
2023/11/28 02:59:52;;;;;;;9.25;5.53;;;;;;;3.40;75.22;98153.75;4993090;28;20145;-77
2023/11/28 03:02:18;;;;;;;9.68;5.35;;;;;;;3.40;75.53;98164.16;5010847;28;20510;-74
2023/11/28 03:04:45;;;;;;;8.98;5.47;;;;;;;3.39;75.47;98162.47;5010678;28;20054;-73
2023/11/28 03:07:12;;;;;;;9.82;5.68;;;;;;;3.39;75.14;98165.09;5010573;28;20042;-74
2023/11/28 03:09:40;;;;;;;10.15;5.68;;;;;;;3.39;75.33;98165.09;4993148;28;20104;-77
2023/11/28 03:12:08;;;;;;;9.40;5.28;;;;;;;3.37;74.73;98164.34;5011297;28;20108;-75
2023/11/28 03:14:35;;;;;;;10.25;6.07;;;;;;;3.37;75.17;98167.75;5014261;28;20116;-75
2023/11/28 03:17:01;;;;;;;6.75;4.65;;;;;;;3.36;74.99;98167.84;5014180;28;20500;-75
2023/11/28 03:19:28;;;;;;;10.73;5.75;;;;;;;3.36;74.64;98173.88;5014335;28;20549;-75
2023/11/28 03:21:55;;;;;;;11.93;6.40;;;;;;;3.33;74.78;98181.84;5014130;28;20049;-75
2023/11/28 03:24:21;;;;;;;9.50;5.40;;;;;;;3.32;74.74;98171.56;5014013;28;20170;-74
2023/11/28 03:26:48;;;;;;;10.75;5.55;;;;;;;3.31;74.93;98169.84;5013828;28;20058;-75
2023/11/28 03:29:14;;;;;;;9.13;5.28;;;;;;;3.30;75.36;98179.44;5014294;28;20042;-76
2023/11/28 03:31:41;;;;;;;8.95;5.25;;;;;;;3.29;74.93;98182.09;5014053;28;20113;-77
2023/11/28 03:34:08;;;;;;;10.95;5.15;;;;;;;3.29;74.55;98189.91;5013712;28;20487;-75
2023/11/28 03:36:34;;;;;;;8.77;5.50;;;;;;;3.26;74.77;98178.72;5013676;28;20486;-73
2023/11/28 03:39:01;;;;;;;10.07;5.90;;;;;;;3.25;74.75;98191.81;5013791;28;20092;-73
2023/11/28 03:41:27;;;;;;;10.65;5.60;;;;;;;3.24;74.69;98200.53;5013935;28;20042;-76
2023/11/28 03:43:54;;;;;;;8.52;4.30;;;;;;;3.24;74.32;98192.72;4995998;28;20049;-72
2023/11/28 03:46:20;;;;;;;10.65;5.30;;;;;;;3.22;74.29;98203.22;5013489;28;20056;-77
2023/11/28 03:48:47;;;;;;;7.45;4.03;;;;;;;3.21;74.24;98211.13;5013503;28;20056;-77
2023/11/28 03:51:13;;;;;;;7.60;4.57;;;;;;;3.19;73.77;98213.78;5013672;28;20049;-73
2023/11/28 03:53:40;;;;;;;8.50;4.45;;;;;;;3.16;73.66;98218.28;4995773;28;20061;-74
2023/11/28 03:56:08;;;;;;;6.82;4.15;;;;;;;3.12;73.41;98228.88;4995936;28;20089;-77
2023/11/28 03:58:35;;;;;;;5.35;3.63;;;;;;;3.08;73.44;98235.16;5013511;28;20637;-74
2023/11/28 04:01:03;;;;;;;6.90;3.88;;;;;;;3.04;73.69;98246.63;4996103;28;20058;-75
2023/11/28 04:03:29;;;;;;;7.45;3.67;;;;;;;3.02;73.68;98245.00;5013181;28;20177;-77
2023/11/28 04:05:56;;;;;;;6.45;3.78;;;;;;;2.97;73.41;98246.09;5013273;28;20054;-74
2023/11/28 04:08:23;;;;;;;5.70;3.08;;;;;;;2.93;73.57;98247.16;5013175;28;20626;-72
2023/11/28 04:10:50;;;;;;;5.90;3.55;;;;;;;2.90;73.42;98247.31;5013344;28;20490;-75
2023/11/28 04:13:16;;;;;;;5.20;3.30;;;;;;;2.86;73.34;98254.41;5013086;28;20069;-74
2023/11/28 04:15:43;;;;;;;4.70;3.22;;;;;;;2.83;73.31;98259.75;4995765;28;20054;-73
2023/11/28 04:18:10;;;;;;;4.10;2.97;;;;;;;2.79;73.30;98257.38;5013133;28;20050;-74
2023/11/28 04:20:37;;;;;;;3.72;2.80;;;;;;;2.77;73.01;98254.03;5013075;28;20060;-74
2023/11/28 04:23:05;;;;;;;6.60;3.30;;;;;;;2.72;73.59;98257.69;5012569;28;20086;-75
2023/11/28 04:25:32;;;;;;;4.53;2.90;;;;;;;2.71;73.40;98255.16;4995716;28;20049;-72
2023/11/28 04:27:59;;;;;;;3.65;2.60;;;;;;;2.67;73.23;98270.06;5005022;28;20553;-74
2023/11/28 04:30:25;;;;;;;4.50;2.65;;;;;;;2.65;73.55;98265.88;4995492;28;20062;-72
2023/11/28 04:32:52;;;;;;;3.85;2.50;;;;;;;2.62;73.66;98269.47;5012971;28;20101;-74
2023/11/28 04:35:19;;;;;;;3.75;2.47;;;;;;;2.60;73.27;98279.06;4995122;28;20058;-76
2023/11/28 04:37:46;;;;;;;4.95;2.70;;;;;;;2.57;73.28;98279.19;5012609;28;20104;-74
2023/11/28 04:40:13;;;;;;;2.83;2.45;;;;;;;2.56;73.42;98285.31;5012802;28;20411;-72
2023/11/28 04:42:39;;;;;;;6.47;3.00;;;;;;;2.53;73.25;98283.72;5012668;28;20100;-76
2023/11/28 04:45:08;;;;;;;4.53;2.25;;;;;;;2.51;73.46;98290.75;5012571;28;20070;-77
2023/11/28 04:47:35;;;;;;;5.28;2.78;;;;;;;2.48;73.43;98290.88;5012519;28;20163;-77
2023/11/28 04:50:03;;;;;;;3.13;2.53;;;;;;;2.47;73.36;98294.41;5012408;28;20072;-73
2023/11/28 04:52:29;;;;;;;5.53;2.70;;;;;;;2.45;73.42;98291.03;5012821;28;20091;-75
2023/11/28 04:54:56;;;;;;;3.90;2.72;;;;;;;2.42;73.05;98297.22;5012166;28;20054;-77
2023/11/28 04:57:23;;;;;;;3.30;2.55;;;;;;;2.39;73.71;98302.53;5012416;28;20053;-75
2023/11/28 04:59:49;;;;;;;5.60;2.60;;;;;;;2.37;73.75;98303.53;5012285;28;20114;-76
2023/11/28 05:02:16;;;;;;;3.35;2.88;;;;;;;2.36;74.34;98307.03;5012204;28;20629;-75
2023/11/28 05:04:43;;;;;;;3.88;3.00;;;;;;;2.36;74.40;98307.03;5012288;28;20165;-77
2023/11/28 05:07:09;;;;;;;3.65;2.83;;;;;;;2.35;74.45;98311.38;5012180;28;20050;-77
2023/11/28 05:09:36;;;;;;;3.92;2.78;;;;;;;2.35;74.44;98316.59;5012058;28;20101;-76
2023/11/28 05:12:03;;;;;;;5.00;3.50;;;;;;;2.36;74.03;98318.28;5011852;28;20468;-75
2023/11/28 05:14:30;;;;;;;4.78;3.42;;;;;;;2.36;74.74;98310.50;4994395;28;20049;-76
2023/11/28 05:16:56;;;;;;;4.60;3.30;;;;;;;2.37;74.24;98322.56;4994542;28;20049;-74
2023/11/28 05:19:23;;;;;;;3.75;3.22;;;;;;;2.38;74.47;98326.84;5011760;28;20060;-74
2023/11/28 05:21:51;;;;;;;5.57;3.47;;;;;;;2.39;74.42;98328.50;4994380;28;20058;-76
2023/11/28 05:24:18;;;;;;;6.47;3.75;;;;;;;2.41;74.43;98333.63;5011580;28;20088;-78
2023/11/28 05:26:45;;;;;;;5.05;3.47;;;;;;;2.40;74.42;98345.81;5011600;28;20056;-74
2023/11/28 05:29:13;;;;;;;5.03;3.10;;;;;;;2.41;74.31;98344.03;4994265;28;20092;-78
2023/11/28 05:31:39;;;;;;;5.38;4.03;;;;;;;2.42;74.51;98356.94;4994362;28;20072;-75
2023/11/28 05:34:06;;;;;;;4.03;3.30;;;;;;;2.43;74.68;98360.41;4993942;28;20053;-76
2023/11/28 05:36:32;;;;;;;5.40;3.80;;;;;;;2.43;74.63;98369.00;5011173;28;20085;-76
2023/11/28 05:38:59;;;;;;;4.63;3.65;;;;;;;2.45;74.62;98364.59;5011744;28;20463;-76
2023/11/28 05:41:26;;;;;;;5.20;3.42;;;;;;;2.45;74.70;98367.19;5011524;28;20054;-75
2023/11/28 05:43:53;;;;;;;5.18;3.90;;;;;;;2.46;74.24;98374.06;4993857;28;20053;-73
2023/11/28 05:46:20;;;;;;;5.30;3.75;;;;;;;2.47;74.56;98377.53;5011304;28;20072;-78
2023/11/28 05:48:55;;;;;;;6.32;3.85;;;;;;;2.47;74.73;98377.53;4995273;28;20050;-76
2023/11/28 05:51:21;;;;;;;4.43;3.58;;;;;;;2.48;74.39;98387.00;5011207;28;20086;-74
2023/11/28 05:53:48;;;;;;;4.80;3.78;;;;;;;2.48;74.56;98389.59;4993569;28;20128;-78
2023/11/28 05:56:14;;;;;;;8.65;3.72;;;;;;;2.48;74.47;98390.41;4993996;28;20049;-76
2023/11/28 05:58:41;;;;;;;5.00;3.92;;;;;;;2.50;74.85;98392.94;4993893;28;20046;-76
2023/11/28 06:01:12;;;;;;;5.32;3.63;;;;;;;2.51;74.83;98401.59;5011659;28;20069;-74
2023/11/28 06:03:38;;;;;;;4.72;4.10;;;;;;;2.52;74.73;98400.66;4993628;28;20131;-76
2023/11/28 06:06:06;;;;;;;4.78;3.80;;;;;;;2.53;74.84;98404.94;5011444;28;20053;-75
2023/11/28 06:08:32;;;;;;;6.38;4.10;;;;;;;2.54;74.59;98411.84;5011223;28;20121;-74
2023/11/28 06:10:59;;;;;;;5.22;3.70;;;;;;;2.54;75.09;98420.47;5003178;28;20088;-75
2023/11/28 06:13:29;;;;;;;5.53;3.85;;;;;;;2.54;74.49;98419.66;5010663;28;20650;-75
2023/11/28 06:15:56;;;;;;;6.57;3.67;;;;;;;2.53;74.79;98426.59;4993631;28;20057;-76
2023/11/28 06:18:22;;;;;;;5.50;4.30;;;;;;;2.55;74.43;98431.72;5011327;28;20438;-74
2023/11/28 06:20:49;;;;;;;4.72;3.97;;;;;;;2.54;74.34;98432.63;5011134;28;20108;-76
2023/11/28 06:23:18;;;;;;;4.70;3.70;;;;;;;2.55;74.22;98436.91;4993367;28;20465;-76
2023/11/28 06:25:46;;;;;;;7.38;4.10;;;;;;;2.53;74.00;98441.31;4993761;28;20046;-75
2023/11/28 06:28:13;;;;;;;4.15;3.20;;;;;;;2.52;74.48;98437.91;4993256;28;20054;-74
2023/11/28 06:30:40;;;;;;;5.05;3.83;;;;;;;2.52;74.38;98447.44;5011168;28;20057;-79
2023/11/28 06:33:06;;;;;;;4.90;3.83;;;;;;;2.49;73.80;98456.22;5010878;28;20140;-83
2023/11/28 06:35:34;;;;;;;4.70;3.53;;;;;;;2.48;74.46;98460.53;5010889;28;20572;-73
2023/11/28 06:38:02;;;;;;;4.47;3.65;;;;;;;2.47;74.10;98465.84;5010925;28;20136;-76
2023/11/28 06:40:28;;;;;;;6.93;4.00;;;;;;;2.44;73.89;98456.41;4993228;28;20046;-76
2023/11/28 06:42:58;;;;;;;5.13;3.92;;;;;;;2.43;74.20;98470.31;5011066;28;20458;-76
2023/11/28 06:45:24;;;;;;;4.38;3.38;;;;;;;2.43;74.02;98472.91;4993439;28;20053;-74
2023/11/28 06:47:51;;;;;;;5.30;3.83;;;;;;;2.42;74.43;98462.56;5014586;28;20069;-75
2023/11/28 06:50:18;;;;;;;5.18;3.80;;;;;;;2.41;74.41;98477.34;4997225;28;20487;-80
2023/11/28 06:52:46;;;;;;;5.97;3.63;;;;;;;2.41;74.02;98482.53;5014669;28;20057;-77
2023/11/28 06:55:12;;;;;;;6.38;3.65;;;;;;;2.41;74.07;98490.31;5014331;28;20053;-74
2023/11/28 06:57:39;;;;;;;4.97;3.42;;;;;;;2.40;74.48;98500.78;5014725;28;20061;-76
2023/11/28 07:00:07;;;;;;;6.43;3.92;;;;;;;2.39;74.31;98501.69;5014582;28;20104;-76
2023/11/28 07:02:35;;;;;;;4.82;3.50;;;;;;;2.37;74.16;98506.94;4996963;28;20049;-79
2023/11/28 07:05:02;;;;;;;5.00;3.95;;;;;;;2.36;74.35;98510.47;4996859;28;20107;-75
2023/11/28 07:07:29;;;;;;;5.32;3.80;;;;;;;2.35;74.41;98519.13;4996494;28;20139;-76
2023/11/28 07:09:56;;;;;;;7.00;4.00;;;;;;;2.34;74.40;98520.06;5014150;28;20088;-75
2023/11/28 07:12:22;;;;;;;5.38;3.88;;;;;;;2.34;74.25;98522.66;4996687;28;20046;-76
2023/11/28 07:14:50;;;;;;;5.00;4.18;;;;;;;2.34;73.99;98522.66;4996816;28;20104;-76
2023/11/28 07:17:18;;;;;;;5.57;4.40;;;;;;;2.34;74.56;98522.66;5013927;28;20092;-76
2023/11/28 07:19:44;;;;;;;7.28;4.88;;;;;;;2.34;74.77;98522.66;5013965;28;20058;-77
2023/11/28 07:22:11;;;;;;;6.93;4.85;;;;;;;2.34;74.71;98541.69;5013997;28;20065;-75
2023/11/28 07:24:38;;;;;;;7.68;5.38;;;;;;;2.37;75.29;98538.09;4996626;28;20077;-74
2023/11/28 07:27:04;;;;;;;6.38;4.70;;;;;;;2.39;75.35;98541.47;5014107;28;20050;-78
2023/11/28 07:29:31;;;;;;;7.65;5.43;;;;;;;2.43;75.85;98542.19;5013901;28;20057;-76
2023/11/28 07:31:57;;;;;;;7.70;5.50;;;;;;;2.47;75.98;98543.75;5013791;28;20062;-76
2023/11/28 07:34:24;;;;;;;9.35;5.60;;;;;;;2.52;76.02;98544.41;5013582;28;20045;-73
2023/11/28 07:36:51;;;;;;;8.30;5.68;;;;;;;2.58;76.21;98551.09;4996163;28;20113;-78
2023/11/28 07:39:17;;;;;;;8.07;5.88;;;;;;;2.63;76.20;98558.66;5013724;28;20123;-74
2023/11/28 07:41:44;;;;;;;7.93;5.60;;;;;;;2.68;75.99;98560.16;4996358;28;20077;-77
2023/11/28 07:44:10;;;;;;;6.53;5.13;;;;;;;2.72;76.24;98561.72;5013651;28;20061;-79
2023/11/28 07:46:37;;;;;;;8.57;5.10;;;;;;;2.78;76.20;98572.72;5013807;28;20050;-76
2023/11/28 07:49:04;;;;;;;11.13;5.32;;;;;;;2.82;76.13;98575.16;5013932;28;20049;-74
2023/11/28 07:51:30;;;;;;;6.80;5.53;;;;;;;2.87;75.58;98580.13;5013534;28;20104;-74
2023/11/28 07:53:57;;;;;;;6.15;5.07;;;;;;;2.91;75.55;98573.88;4996116;28;20053;-80
2023/11/28 07:56:23;;;;;;;7.13;5.07;;;;;;;2.95;75.82;98579.81;4996181;28;20089;-75
2023/11/28 07:58:50;;;;;;;8.50;5.45;;;;;;;2.98;75.96;98579.66;4995153;28;20085;-78
2023/11/28 08:01:17;;;;;;;6.82;5.30;;;;;;;3.03;75.90;98590.66;4996111;28;20145;-78
2023/11/28 08:03:43;;;;;;;6.65;5.20;;;;;;;3.08;75.79;98590.47;4995829;28;20156;-75
2023/11/28 08:06:12;;;;;;;6.80;5.20;;;;;;;3.12;75.75;98598.09;5013818;28;20076;-76
2023/11/28 08:08:38;;;;;;;10.05;5.53;;;;;;;3.16;75.32;98609.19;4995765;28;20488;-75
2023/11/28 08:11:05;;;;;;;7.00;5.20;;;;;;;3.19;75.26;98603.00;4995961;28;20486;-79
2023/11/28 08:13:32;;;;;;;8.73;5.15;;;;;;;3.21;75.07;98612.41;4995535;28;20049;-76
2023/11/28 08:15:58;;;;;;;7.47;5.40;;;;;;;3.24;75.24;98617.47;4996033;28;20099;-73
2023/11/28 08:18:25;;;;;;;5.32;4.50;;;;;;;3.25;75.47;98616.56;4995829;28;20140;-75
2023/11/28 08:20:52;;;;;;;6.00;4.82;;;;;;;3.30;75.57;98612.91;5013249;28;20053;-75
2023/11/28 08:23:19;;;;;;;6.50;5.18;;;;;;;3.33;75.46;98629.22;5012927;28;20058;-77
2023/11/28 08:25:45;;;;;;;7.57;5.32;;;;;;;3.36;75.59;98630.81;5012991;28;20077;-75
2023/11/28 08:28:12;;;;;;;7.03;5.45;;;;;;;3.39;75.13;98636.75;4995473;28;20053;-77
2023/11/28 08:30:39;;;;;;;7.55;5.10;;;;;;;3.41;74.83;98631.47;5012946;28;20050;-76
2023/11/28 08:33:05;;;;;;;7.70;5.50;;;;;;;3.44;75.22;98640.91;5012756;28;20486;-76
2023/11/28 08:35:32;;;;;;;5.78;4.55;;;;;;;3.45;75.09;98638.25;5012881;28;20104;-76
2023/11/28 08:37:58;;;;;;;6.63;4.90;;;;;;;3.47;75.21;98641.59;5012718;28;20443;-76
2023/11/28 08:40:25;;;;;;;6.07;4.80;;;;;;;3.49;74.71;98645.00;4995328;28;20062;-76
2023/11/28 08:42:52;;;;;;;8.30;4.80;;;;;;;3.51;74.55;98656.16;5012612;28;20104;-80
2023/11/28 08:45:18;;;;;;;6.43;4.47;;;;;;;3.52;74.72;98659.63;5012445;28;20604;-76
2023/11/28 08:47:45;;;;;;;6.65;4.72;;;;;;;3.52;74.37;98657.00;4994686;28;20101;-75
2023/11/28 08:50:12;;;;;;;5.88;4.45;;;;;;;3.54;74.53;98664.75;5011744;28;20053;-76
2023/11/28 08:52:39;;;;;;;5.95;4.57;;;;;;;3.53;74.40;98669.09;5011704;28;20068;-76
2023/11/28 08:55:06;;;;;;;6.72;4.30;;;;;;;3.54;74.23;98681.19;5011375;28;20096;-74
2023/11/28 08:57:35;;;;;;;6.00;4.80;;;;;;;3.55;74.58;98674.25;5011563;28;20112;-79
2023/11/28 09:00:03;;;;;;;6.93;4.50;;;;;;;3.56;74.48;98686.31;5011323;28;20398;-75
2023/11/28 09:02:30;;;;;;;7.20;4.47;;;;;;;3.58;74.58;98679.28;4994227;28;20053;-78
2023/11/28 09:04:57;;;;;;;5.97;4.55;;;;;;;3.59;74.32;98675.78;4994026;28;20057;-74
2023/11/28 09:07:24;;;;;;;7.85;4.72;;;;;;;3.60;74.89;98683.53;4993703;28;20562;-76
2023/11/28 09:09:51;;;;;;;7.38;5.00;;;;;;;3.60;74.26;98687.88;4992769;28;20415;-78
2023/11/28 09:12:17;;;;;;;6.53;5.00;;;;;;;3.60;74.27;98691.34;5011284;28;20050;-76
2023/11/28 09:14:45;;;;;;;6.78;4.72;;;;;;;3.60;74.31;98695.69;5011085;28;20042;-76
2023/11/28 09:17:21;;;;;;;6.30;4.97;;;;;;;3.60;74.57;98700.88;5011180;28;20045;-79
2023/11/28 09:19:48;;;;;;;8.00;5.47;;;;;;;3.60;74.60;98700.88;5011114;28;20590;-75
2023/11/28 09:22:15;;;;;;;5.57;4.75;;;;;;;3.61;74.44;98708.63;5011410;28;20057;-75
2023/11/28 09:24:42;;;;;;;7.38;5.28;;;;;;;3.62;74.27;98712.06;5010915;28;20061;-74
2023/11/28 09:27:10;;;;;;;6.57;5.05;;;;;;;3.64;74.50;98716.31;4993696;28;20081;-78
2023/11/28 09:29:37;;;;;;;7.35;5.45;;;;;;;3.65;74.68;98714.53;4993618;28;20061;-73
2023/11/28 09:32:04;;;;;;;7.32;5.38;;;;;;;3.67;75.13;98717.91;5011040;28;20053;-73
2023/11/28 09:34:31;;;;;;;6.80;5.28;;;;;;;3.71;74.99;98716.00;5010723;28;20100;-76
2023/11/28 09:36:58;;;;;;;7.40;5.72;;;;;;;3.73;74.73;98715.03;5010886;28;20096;-76
2023/11/28 09:39:26;;;;;;;7.78;5.63;;;;;;;3.76;75.01;98716.63;4993422;28;20064;-76
2023/11/28 09:41:53;;;;;;;8.00;5.75;;;;;;;3.78;74.72;98720.88;5010550;28;20068;-74
2023/11/28 09:44:25;;;;;;;7.53;5.82;;;;;;;3.81;75.30;98722.47;5010760;28;20089;-75
2023/11/28 09:46:56;;;;;;;8.93;6.05;;;;;;;3.85;74.71;98721.41;5010651;28;20414;-76
2023/11/28 09:49:25;;;;;;;8.90;6.05;;;;;;;3.91;75.31;98725.50;4972091;28;1127414;-77
2023/11/28 09:51:53;;;;;;;7.38;5.78;;;;;;;3.95;74.94;98723.59;5011360;28;20100;-76
2023/11/28 09:54:22;;;;;;;9.30;5.72;;;;;;;3.99;74.90;98723.41;4993934;28;20069;-73
2023/11/28 09:56:50;;;;;;;9.48;6.43;;;;;;;4.04;74.82;98723.19;4993910;28;20083;-73
2023/11/28 09:59:19;;;;;;;12.35;6.22;;;;;;;4.10;74.75;98724.63;5011303;28;20085;-78
2023/11/28 10:01:46;;;;;;;9.38;6.15;;;;;;;4.11;75.24;98721.97;4993868;28;20061;-77
2023/11/28 10:04:13;;;;;;;9.50;6.75;;;;;;;4.14;75.20;98724.44;4993779;28;20049;-78
2023/11/28 10:06:46;;;;;;;8.60;6.55;;;;;;;4.17;74.62;98732.13;4993634;28;20050;-76
2023/11/28 10:09:15;;;;;;;8.43;6.10;;;;;;;4.21;74.44;98732.81;5011244;28;20085;-74
2023/11/28 10:11:43;;;;;;;8.65;6.20;;;;;;;4.23;74.66;98733.56;5011132;28;20046;-77
2023/11/28 10:14:10;;;;;;;9.48;6.63;;;;;;;4.27;74.66;98732.50;4993533;28;20100;-75
2023/11/28 10:16:42;;;;;;;8.68;6.35;;;;;;;4.28;73.79;98730.75;5011154;28;20101;-75
2023/11/28 10:19:09;;;;;;;7.55;5.68;;;;;;;4.31;74.62;98733.22;5010887;28;20046;-79
2023/11/28 10:21:37;;;;;;;10.43;6.25;;;;;;;4.35;75.07;98739.13;4993196;28;20491;-78
2023/11/28 10:24:06;;;;;;;6.90;5.65;;;;;;;4.38;74.28;98736.38;5011019;28;20124;-75
2023/11/28 10:26:32;;;;;;;7.18;6.05;;;;;;;4.42;74.40;98740.53;5011060;28;20101;-75
2023/11/28 10:29:01;;;;;;;7.47;5.32;;;;;;;4.44;74.10;98741.28;5002727;28;20050;-74
2023/11/28 10:31:27;;;;;;;8.65;5.28;;;;;;;4.47;74.58;98735.06;5010996;28;20046;-76
2023/11/28 10:33:56;;;;;;;6.45;5.50;;;;;;;4.47;73.71;98743.75;4993173;28;20123;-77
2023/11/28 10:36:26;;;;;;;9.80;5.40;;;;;;;4.50;73.47;98741.00;5011132;28;20088;-78
2023/11/28 10:38:53;;;;;;;8.98;5.57;;;;;;;4.53;74.30;98747.81;4993485;28;20100;-75
2023/11/28 10:41:30;;;;;;;6.35;5.55;;;;;;;4.53;73.29;98750.44;4993453;28;20053;-74
2023/11/28 10:43:58;;;;;;;7.85;5.47;;;;;;;4.59;74.56;98746.69;5010659;28;20050;-75
2023/11/28 10:46:25;;;;;;;8.40;6.18;;;;;;;4.62;74.39;98752.59;5010984;28;20438;-75
2023/11/28 10:48:53;;;;;;;5.85;5.22;;;;;;;4.66;74.95;98753.25;5010847;28;20156;-75
2023/11/28 10:51:20;;;;;;;7.20;5.45;;;;;;;4.70;74.73;98754.81;4993346;28;20045;-81
2023/11/28 10:53:51;;;;;;;6.75;5.45;;;;;;;4.73;74.22;98756.41;4993167;28;20081;-75
2023/11/28 10:56:20;;;;;;;5.13;4.03;;;;;;;4.78;74.53;98752.66;4993378;28;20057;-74
2023/11/28 10:58:47;;;;;;;9.13;6.15;;;;;;;4.83;74.65;98752.44;5010367;28;20058;-75
2023/11/28 11:01:15;;;;;;;9.68;6.28;;;;;;;4.88;74.83;98754.81;4993071;28;20483;-80
2023/11/28 11:03:45;;;;;;;9.50;6.68;;;;;;;4.91;74.41;98755.53;5010565;28;20053;-78
2023/11/28 11:06:12;;;;;;;7.78;6.00;;;;;;;4.96;74.50;98747.44;4993325;28;20057;-77
2023/11/28 11:08:41;;;;;;;7.95;6.03;;;;;;;5.00;74.17;98751.59;4993062;28;20144;-74
2023/11/28 11:11:08;;;;;;;7.13;5.55;;;;;;;5.02;73.81;98760.22;5010539;28;20100;-76
2023/11/28 11:13:38;;;;;;;7.60;6.00;;;;;;;5.03;72.75;98761.88;5010187;28;20056;-75
2023/11/28 11:16:26;;;;;;;7.47;6.25;;;;;;;5.01;71.69;98765.50;4993296;28;20104;-75
2023/11/28 11:18:55;;;;;;;7.10;6.25;;;;;;;5.07;74.11;98771.25;5010443;28;20494;-77
2023/11/28 11:21:31;;;;;;;8.00;6.35;;;;;;;5.09;73.37;98773.78;4993023;28;20089;-73
2023/11/28 11:24:00;;;;;;;7.47;5.93;;;;;;;5.16;74.81;98775.13;5010274;28;20399;-78
2023/11/28 11:26:39;;;;;;;7.93;6.57;;;;;;;5.18;72.42;98777.69;5010633;28;20491;-79
2023/11/28 11:29:24;;;;;;;7.78;6.22;;;;;;;5.24;72.29;98777.38;4992940;28;20050;-77
2023/11/28 11:31:53;;;;;;;7.78;6.22;;;;;;;5.33;74.11;98784.72;4993150;28;20042;-74
2023/11/28 11:34:34;;;;;;;9.18;6.05;;;;;;;5.35;71.71;98782.88;4995357;28;20128;-75
2023/11/28 11:37:07;;;;;;;6.68;5.65;;;;;;;5.40;71.38;98779.19;4988656;28;20064;-76
2023/11/28 11:39:38;;;;;;;7.13;5.65;;;;;;;5.43;72.13;98774.69;5013944;28;20883;-78
2023/11/28 11:42:12;;;;;;;7.28;5.60;;;;;;;5.43;71.66;98789.47;5013930;28;20045;-74